Terminal Aerodrome Forecast
Issued by NWS

Home | Current Version | Previous Version | Text Only | Print | Product List | Glossary On
Versions: 1 2 3 4 5 6 7 8 9 10 11 12 13 14 15 16 17 18 19 20 21 22 23 24
000
FTUS44 KLZK 201130
TAFLIT
TAF
KLIT 201130Z 2012/2112 13003KT P6SM FEW120 BKN250
     FM201400 15007KT P6SM BKN050 OVC100
     FM201800 18010KT P6SM BKN025 OVC050
     FM210200 23005KT 5SM -SHRA BR OVC040
     FM210900 33002KT P6SM OVC030=

USA.gov is the U.S. government's official web portal to all federal, state and local government web resources and services.